McHenry, Mississippi
Current Conditions -  °F | °C
As of 12:53 PM on Sunday 21 Dec 2014 (Local Time) from KGPT Reporting Station
Broken Clouds Broken Clouds  
Wind Chill: 14°   Ceiling: 1700
Heat Index: 14°   Visibility: 10mi
Dew Point: 11°   Wind: 0mph
Humidity: 81%   Direction: NA
Pressure: 30.06"   Gusts: NA
Location:  30.71°N, 89.14°W
Report Text: KGPT 211853Z 00000KT 10SM BKN017 14/11 A3006 RMK AO2 SLP177 T01440111
Loading
Personal Weather Stations






























Interactive Weather Map New forecast layout! Learn more

10-Day Weather Forecast

Advertisements
Track Severe Weather on mobile